createdAt,value
2022-12-18T00:00:43.737Z,95.83
2022-12-18T00:03:51.009Z,95.93
2022-12-18T00:06:58.788Z,95.87
2022-12-18T00:10:06.050Z,95.87
2022-12-18T00:13:13.265Z,95.87
2022-12-18T00:16:20.993Z,95.97
2022-12-18T00:19:28.279Z,96.08
2022-12-18T00:22:35.431Z,96.08
2022-12-18T00:25:43.169Z,95.97
2022-12-18T00:28:49.920Z,95.76
2022-12-18T00:31:57.148Z,95.70
2022-12-18T00:35:04.667Z,95.91
2022-12-18T00:38:11.751Z,96.01
2022-12-18T00:41:19.272Z,95.81
2022-12-18T00:44:27.022Z,96.01
2022-12-18T00:47:33.887Z,96.23
2022-12-18T00:50:40.811Z,96.34
2022-12-18T00:53:48.120Z,96.34
2022-12-18T00:56:55.363Z,96.34
2022-12-18T01:00:02.933Z,96.01
2022-12-18T01:03:10.356Z,95.85
2022-12-18T01:06:17.551Z,95.64
2022-12-18T01:09:25.128Z,95.64
2022-12-18T01:12:32.419Z,95.53
2022-12-18T01:15:39.680Z,95.47
2022-12-18T01:18:46.981Z,95.57
2022-12-18T01:21:54.806Z,95.47
2022-12-18T01:24:55.681Z,95.89
2022-12-18T01:28:03.429Z,95.89
2022-12-18T01:31:11.286Z,95.89
2022-12-18T01:34:18.797Z,95.89
2022-12-18T01:37:26.599Z,96.00
2022-12-18T01:40:34.626Z,95.78
2022-12-18T01:43:41.868Z,95.68
2022-12-18T01:46:49.730Z,95.68
2022-12-18T01:49:57.560Z,95.47
2022-12-18T01:53:04.731Z,95.57
2022-12-18T01:56:12.753Z,95.47
2022-12-18T01:59:20.468Z,95.57
2022-12-18T02:02:27.869Z,95.36
2022-12-18T02:05:35.726Z,95.19
2022-12-18T02:08:43.621Z,94.98
2022-12-18T02:11:51.314Z,94.98
2022-12-18T02:14:59.437Z,94.87
2022-12-18T02:18:07.231Z,95.02
2022-12-18T02:21:14.802Z,95.29
2022-12-18T02:24:22.996Z,95.51
2022-12-18T02:27:30.562Z,95.45
2022-12-18T02:30:38.277Z,95.51
2022-12-18T02:33:46.488Z,95.34
2022-12-18T02:36:54.122Z,95.45
2022-12-18T02:40:01.874Z,95.34
2022-12-18T02:43:09.063Z,95.55
2022-12-18T02:46:17.300Z,95.61
2022-12-18T02:49:25.055Z,95.72
2022-12-18T02:52:32.839Z,95.72
2022-12-18T02:55:40.992Z,95.72
2022-12-18T02:58:48.199Z,95.61
2022-12-18T03:01:56.226Z,95.51
2022-12-18T03:05:04.655Z,95.40
2022-12-18T03:08:11.961Z,95.19
2022-12-18T03:11:19.861Z,95.08
2022-12-18T03:14:27.461Z,95.29
2022-12-18T03:17:34.931Z,95.29
2022-12-18T03:20:42.352Z,95.29
2022-12-18T03:23:49.971Z,95.40
2022-12-18T03:26:57.464Z,95.29
2022-12-18T03:30:05.391Z,94.98
2022-12-18T03:33:13.032Z,95.08
2022-12-18T03:36:20.685Z,95.19
2022-12-18T03:39:28.551Z,95.29
2022-12-18T03:42:36.402Z,95.19
2022-12-18T03:45:43.961Z,95.40
2022-12-18T03:48:51.512Z,95.19
2022-12-18T03:51:59.721Z,95.19
2022-12-18T03:55:07.842Z,95.08
2022-12-18T03:58:15.843Z,95.02
2022-12-18T04:01:23.949Z,95.02
2022-12-18T04:04:31.822Z,95.12
2022-12-18T04:07:39.466Z,95.12
2022-12-18T04:10:47.485Z,95.12
2022-12-18T04:13:54.709Z,94.91
2022-12-18T04:17:02.575Z,94.48
2022-12-18T04:20:10.404Z,94.38
2022-12-18T04:23:17.873Z,94.64
2022-12-18T04:26:26.125Z,94.74
2022-12-18T04:29:34.227Z,94.91
2022-12-18T04:32:41.512Z,95.12
2022-12-18T04:35:49.832Z,95.23
2022-12-18T04:38:57.638Z,94.91
2022-12-18T04:42:05.475Z,94.64
2022-12-18T04:45:13.644Z,94.31
2022-12-18T04:48:21.091Z,94.53
2022-12-18T04:51:29.025Z,94.42
2022-12-18T04:54:36.855Z,94.35
2022-12-18T04:57:44.851Z,94.35
2022-12-18T05:00:52.896Z,94.68
2022-12-18T05:04:00.789Z,94.64
2022-12-18T05:07:09.065Z,94.64
2022-12-18T05:10:16.955Z,94.64
2022-12-18T05:13:24.660Z,94.64
2022-12-18T05:16:32.864Z,94.74
2022-12-18T05:19:40.237Z,94.74
2022-12-18T05:22:48.536Z,94.85
2022-12-18T05:25:56.705Z,94.85
2022-12-18T05:29:04.209Z,94.85
2022-12-18T05:32:12.533Z,94.91
2022-12-18T05:35:20.192Z,94.70
2022-12-18T05:38:28.168Z,94.53
2022-12-18T05:41:35.855Z,94.64
2022-12-18T05:44:43.530Z,94.53
2022-12-18T05:47:51.840Z,94.31
2022-12-18T05:50:59.399Z,93.99
2022-12-18T05:54:07.097Z,94.04
2022-12-18T05:57:15.242Z,93.72
2022-12-18T06:00:22.999Z,93.93
2022-12-18T06:03:33.872Z,94.25
2022-12-18T06:06:31.688Z,94.46
2022-12-18T06:09:39.062Z,94.68
2022-12-18T06:12:47.152Z,94.78
2022-12-18T06:15:55.510Z,94.57
2022-12-18T06:19:02.730Z,94.57
2022-12-18T06:22:10.771Z,94.35
2022-12-18T06:25:18.770Z,94.25
2022-12-18T06:28:26.291Z,94.08
2022-12-18T06:31:34.653Z,93.97
2022-12-18T06:34:42.395Z,93.97
2022-12-18T06:37:50.400Z,94.29
2022-12-18T06:40:58.868Z,94.40
2022-12-18T06:44:06.576Z,94.61
2022-12-18T06:47:14.295Z,94.72
2022-12-18T06:50:22.324Z,94.61
2022-12-18T06:53:29.986Z,94.72
2022-12-18T06:56:37.606Z,94.61
2022-12-18T06:59:45.873Z,94.51
2022-12-18T07:02:53.635Z,94.61
2022-12-18T07:06:01.324Z,94.51
2022-12-18T07:09:08.971Z,94.61
2022-12-18T07:12:17.078Z,94.61
2022-12-18T07:15:24.465Z,94.51
2022-12-18T07:18:32.422Z,94.61
2022-12-18T07:21:40.363Z,94.82
2022-12-18T07:24:47.834Z,94.89
2022-12-18T07:27:55.683Z,94.95
2022-12-18T07:31:03.486Z,94.95
2022-12-18T07:34:11.323Z,94.95
2022-12-18T07:37:19.018Z,94.81
2022-12-18T07:40:27.208Z,94.70
2022-12-18T07:43:34.606Z,94.70
2022-12-18T07:46:42.738Z,94.65
2022-12-18T07:49:50.941Z,94.65
2022-12-18T07:52:58.690Z,94.44
2022-12-18T07:56:26.442Z,94.02
2022-12-18T07:59:11.840Z,93.63
2022-12-18T08:02:19.149Z,93.74
2022-12-18T08:05:26.876Z,93.74
2022-12-18T08:08:34.668Z,93.52
2022-12-18T08:11:42.453Z,93.52
2022-12-18T08:14:50.521Z,93.63
2022-12-18T08:17:58.443Z,93.74
2022-12-18T08:21:07.729Z,93.63
2022-12-18T08:24:15.823Z,93.59
2022-12-18T08:27:30.768Z,93.59
2022-12-18T08:30:26.878Z,93.59
2022-12-18T08:33:34.758Z,93.70
2022-12-18T08:36:42.659Z,93.87
2022-12-18T08:39:50.379Z,93.87
2022-12-18T08:42:57.687Z,94.04
2022-12-18T08:46:05.615Z,94.10
2022-12-18T08:49:12.949Z,93.99
2022-12-18T08:52:20.427Z,93.42
2022-12-18T08:55:28.089Z,93.21
2022-12-18T08:58:35.166Z,93.21
2022-12-18T09:01:43.067Z,93.38
2022-12-18T09:04:56.947Z,93.06
2022-12-18T09:07:53.994Z,93.34
2022-12-18T09:11:02.025Z,93.02
2022-12-18T09:14:10.237Z,92.38
2022-12-18T09:17:17.433Z,92.28
2022-12-18T09:20:25.860Z,92.34
2022-12-18T09:23:33.715Z,92.13
2022-12-18T09:26:41.695Z,92.55
2022-12-18T09:29:51.499Z,92.45
2022-12-18T09:32:59.320Z,92.51
2022-12-18T09:36:06.906Z,92.72
2022-12-18T09:39:14.521Z,92.62
2022-12-18T09:42:21.918Z,92.58
2022-12-18T09:45:29.441Z,92.47
2022-12-18T09:48:37.160Z,92.58
2022-12-18T09:51:45.385Z,92.85
2022-12-18T09:54:52.830Z,92.85
2022-12-18T09:58:00.299Z,92.60
2022-12-18T10:01:07.760Z,92.60
2022-12-18T10:04:14.867Z,92.56
2022-12-18T10:07:22.619Z,92.13
2022-12-18T10:10:30.338Z,92.03
2022-12-18T10:13:37.642Z,92.03
2022-12-18T10:16:45.611Z,92.10
2022-12-18T10:19:53.661Z,92.20
2022-12-18T10:23:00.809Z,92.05
2022-12-18T10:26:08.689Z,92.16
2022-12-18T10:29:16.252Z,92.33
2022-12-18T10:32:23.418Z,92.11
2022-12-18T10:35:31.125Z,92.01
2022-12-18T10:38:38.816Z,92.07
2022-12-18T10:41:46.901Z,91.97
2022-12-18T10:44:54.700Z,92.07
2022-12-18T10:48:02.061Z,92.39
2022-12-18T10:51:12.319Z,92.50
2022-12-18T10:54:10.295Z,92.67
2022-12-18T10:57:17.893Z,92.77
2022-12-18T11:00:25.383Z,92.99
2022-12-18T11:03:33.333Z,93.05
2022-12-18T11:06:41.031Z,93.26
2022-12-18T11:09:48.451Z,93.22
2022-12-18T11:12:55.811Z,93.54
2022-12-18T11:16:03.365Z,93.49
2022-12-18T11:19:10.670Z,93.13
2022-12-18T11:22:18.669Z,92.82
2022-12-18T11:25:35.439Z,92.50
2022-12-18T11:28:31.253Z,92.35
2022-12-18T11:31:39.367Z,91.93
2022-12-18T11:34:46.844Z,91.68
2022-12-18T11:37:54.352Z,91.68
2022-12-18T11:41:02.254Z,91.26
2022-12-18T11:44:09.862Z,91.26
2022-12-18T11:47:17.520Z,91.22
2022-12-18T11:50:25.226Z,91.11
2022-12-18T11:53:33.486Z,91.42
2022-12-18T11:56:40.991Z,91.53
2022-12-18T11:59:48.645Z,91.42
2022-12-18T12:02:56.223Z,91.53
2022-12-18T12:06:03.429Z,91.60
2022-12-18T12:09:11.347Z,91.81
2022-12-18T12:12:19.383Z,91.87
2022-12-18T12:15:27.005Z,91.51
2022-12-18T12:18:34.982Z,90.99
2022-12-18T12:21:42.621Z,90.42
2022-12-18T12:24:49.920Z,90.00
2022-12-18T12:27:57.699Z,89.96
2022-12-18T12:31:06.775Z,89.32
2022-12-18T12:34:14.391Z,89.22
2022-12-18T12:37:22.246Z,88.91
2022-12-18T12:43:34.903Z,89.22
2022-12-18T12:46:42.909Z,88.70
2022-12-18T12:49:50.898Z,88.38
2022-12-18T12:52:59.134Z,88.38
2022-12-18T12:56:06.496Z,88.63
2022-12-18T12:59:14.348Z,89.16
2022-12-18T13:02:21.858Z,89.47
2022-12-18T13:05:30.130Z,89.62
2022-12-18T13:08:37.958Z,89.72
2022-12-18T13:11:46.196Z,89.62
2022-12-18T13:14:53.666Z,89.62
2022-12-18T13:18:01.783Z,89.76
2022-12-18T13:21:09.103Z,89.76
2022-12-18T13:24:17.239Z,89.66
2022-12-18T13:27:24.876Z,89.87
2022-12-18T13:30:32.217Z,89.98
2022-12-18T13:34:02.057Z,89.56
2022-12-18T13:36:45.636Z,89.17
2022-12-18T13:39:54.535Z,89.17
2022-12-18T13:43:02.301Z,89.28
2022-12-18T13:46:09.947Z,89.17
2022-12-18T13:49:17.426Z,89.42
2022-12-18T13:52:25.377Z,89.64
2022-12-18T13:55:34.766Z,89.64
2022-12-18T13:58:43.246Z,89.68
2022-12-18T14:01:53.192Z,89.99
2022-12-18T14:05:01.433Z,90.25
2022-12-18T14:08:09.043Z,90.45
2022-12-18T14:11:17.229Z,90.56
2022-12-18T14:14:30.945Z,90.70
2022-12-18T14:17:29.761Z,90.70
2022-12-18T14:20:37.747Z,90.81
2022-12-18T14:23:45.772Z,90.70
2022-12-18T14:26:53.848Z,90.81
2022-12-18T14:30:01.704Z,90.92
2022-12-18T14:33:09.891Z,91.06
2022-12-18T14:36:17.561Z,91.06
2022-12-18T14:39:25.919Z,91.06
2022-12-18T14:42:34.872Z,91.17
2022-12-18T14:45:43.272Z,91.21
2022-12-18T14:48:51.847Z,91.31
2022-12-18T14:52:00.000Z,91.42
2022-12-18T14:55:07.441Z,91.53
2022-12-18T14:58:15.791Z,91.31
2022-12-18T15:01:23.573Z,91.36
2022-12-18T15:04:31.369Z,91.46
2022-12-18T15:07:39.473Z,91.25
2022-12-18T15:10:47.507Z,91.36
2022-12-18T15:13:55.304Z,91.14
2022-12-18T15:17:03.264Z,91.04
2022-12-18T15:20:10.820Z,90.62
2022-12-18T15:23:18.681Z,90.37
2022-12-18T15:26:26.005Z,89.94
2022-12-18T15:29:33.846Z,89.42
2022-12-18T15:32:41.752Z,89.31
2022-12-18T15:35:49.052Z,89.00
2022-12-18T15:38:59.513Z,88.78
2022-12-18T15:42:01.954Z,88.78
2022-12-18T15:45:09.192Z,88.89
2022-12-18T15:48:17.123Z,88.78
2022-12-18T15:51:24.344Z,88.57
2022-12-18T15:54:32.520Z,88.57
2022-12-18T15:57:40.500Z,88.57
2022-12-18T16:00:47.899Z,88.68
2022-12-18T16:03:55.832Z,88.78
2022-12-18T16:07:14.871Z,88.78
2022-12-18T16:10:08.931Z,88.71
2022-12-18T16:13:17.456Z,88.71
2022-12-18T16:16:25.121Z,89.03
2022-12-18T16:19:33.203Z,89.03
2022-12-18T16:22:40.755Z,89.14
2022-12-18T16:25:48.866Z,89.46
2022-12-18T16:28:56.637Z,89.35
2022-12-18T16:32:05.406Z,89.46
2022-12-18T16:35:12.766Z,89.56
2022-12-18T16:38:21.636Z,89.77
2022-12-18T16:41:29.067Z,89.88
2022-12-18T16:44:37.580Z,89.98
2022-12-18T16:47:45.661Z,89.98
2022-12-18T16:50:52.900Z,89.98
2022-12-18T16:54:02.967Z,89.98
2022-12-18T16:57:03.818Z,90.20
2022-12-18T17:00:11.022Z,90.16
2022-12-18T17:03:18.791Z,89.84
2022-12-18T17:06:26.705Z,89.84
2022-12-18T17:09:34.165Z,89.73
2022-12-18T17:12:42.316Z,89.73
2022-12-18T17:15:51.402Z,89.73
2022-12-18T17:18:59.074Z,89.84
2022-12-18T17:22:07.458Z,89.84
2022-12-18T17:25:15.259Z,89.94
2022-12-18T17:28:22.800Z,90.16
2022-12-18T17:31:30.959Z,90.16
2022-12-18T17:34:38.542Z,90.05
2022-12-18T17:37:46.051Z,89.84
2022-12-18T17:40:53.678Z,89.79
2022-12-18T17:44:01.700Z,89.79
2022-12-18T17:47:09.369Z,89.69
2022-12-18T17:50:17.012Z,89.69
2022-12-18T17:53:25.119Z,89.79
2022-12-18T17:56:32.832Z,89.79
2022-12-18T17:59:40.339Z,89.69
2022-12-18T18:02:48.548Z,89.59
2022-12-18T18:05:56.172Z,89.76
2022-12-18T18:09:04.158Z,89.54
2022-12-18T18:12:11.969Z,89.34
2022-12-18T18:15:19.425Z,89.44
2022-12-18T18:18:27.229Z,89.44
2022-12-18T18:21:35.028Z,89.12
2022-12-18T18:24:42.831Z,88.92
2022-12-18T18:27:50.770Z,89.12
2022-12-18T18:30:58.405Z,89.23
2022-12-18T18:34:06.212Z,89.23
2022-12-18T18:37:15.819Z,89.34
2022-12-18T18:40:23.570Z,89.44
2022-12-18T18:43:24.833Z,89.34
2022-12-18T18:46:32.400Z,89.29
2022-12-18T18:49:40.192Z,89.40
2022-12-18T18:52:47.933Z,89.19
2022-12-18T18:56:34.544Z,89.09
2022-12-18T18:59:00.285Z,89.09
2022-12-18T19:02:08.220Z,88.98
2022-12-18T19:05:16.074Z,88.87
2022-12-18T19:08:24.066Z,88.77
2022-12-18T19:11:36.071Z,88.87
2022-12-18T19:14:33.572Z,89.09
2022-12-18T19:17:41.406Z,88.98
2022-12-18T19:20:41.594Z,88.98
2022-12-18T19:23:49.454Z,88.94
2022-12-18T19:26:56.724Z,88.73
2022-12-18T19:30:06.134Z,88.52
2022-12-18T19:33:41.996Z,88.41
2022-12-18T19:36:18.787Z,88.52
2022-12-18T19:39:26.949Z,88.41
2022-12-18T19:42:35.605Z,88.62
2022-12-18T19:45:43.192Z,88.73
2022-12-18T19:48:50.899Z,88.58
2022-12-18T19:51:58.668Z,88.37
2022-12-18T19:55:06.746Z,88.37
2022-12-18T19:58:14.587Z,88.37
2022-12-18T20:01:22.527Z,88.06
2022-12-18T20:04:30.657Z,88.16
2022-12-18T20:07:38.366Z,88.06
2022-12-18T20:10:47.466Z,87.95
2022-12-18T20:13:55.464Z,87.91
2022-12-18T20:17:03.160Z,87.81
2022-12-18T20:20:11.079Z,88.02
2022-12-18T20:23:19.116Z,87.70
2022-12-18T20:26:26.282Z,87.60
2022-12-18T20:29:33.867Z,87.60
2022-12-18T20:32:41.908Z,87.24
2022-12-18T20:35:49.230Z,86.93
2022-12-18T20:38:59.205Z,86.93
2022-12-18T20:41:58.640Z,86.93
2022-12-18T20:45:06.359Z,87.03
2022-12-18T20:48:14.400Z,86.82
2022-12-18T20:51:21.993Z,87.03
2022-12-18T20:54:29.779Z,87.13
2022-12-18T20:57:37.765Z,87.03
2022-12-18T21:00:46.747Z,87.03
2022-12-18T21:03:54.849Z,86.82
2022-12-18T21:07:03.076Z,86.82
2022-12-18T21:10:10.360Z,86.82
2022-12-18T21:13:18.358Z,87.03
2022-12-18T21:16:26.270Z,87.13
2022-12-18T21:19:34.029Z,87.24
2022-12-18T21:22:41.924Z,87.35
2022-12-18T21:25:55.518Z,87.03
2022-12-18T21:28:53.021Z,86.93
2022-12-18T21:32:00.980Z,87.13
2022-12-18T21:35:08.546Z,87.03
2022-12-18T21:38:16.196Z,87.03
2022-12-18T21:41:23.603Z,87.03
2022-12-18T21:44:31.628Z,87.13
2022-12-18T21:47:34.957Z,87.13
2022-12-18T21:50:42.401Z,87.24
2022-12-18T21:53:50.233Z,87.35
2022-12-18T21:56:57.886Z,87.35
2022-12-18T22:00:05.384Z,87.13
2022-12-18T22:03:18.430Z,86.99
2022-12-18T22:06:15.653Z,86.78
2022-12-18T22:09:23.645Z,86.78
2022-12-18T22:12:31.836Z,86.68
2022-12-18T22:15:39.097Z,86.68
2022-12-18T22:18:47.129Z,86.78
2022-12-18T22:21:54.906Z,86.68
2022-12-18T22:25:02.089Z,86.78
2022-12-18T22:28:09.926Z,86.68
2022-12-18T22:31:17.575Z,86.88
2022-12-18T22:34:25.203Z,86.99
2022-12-18T22:37:33.342Z,86.88
2022-12-18T22:40:40.564Z,86.99
2022-12-18T22:43:48.312Z,87.10
2022-12-18T22:47:06.252Z,87.20
2022-12-18T22:50:01.207Z,86.95
2022-12-18T22:53:08.717Z,86.95
2022-12-18T22:56:20.327Z,86.95
2022-12-18T22:59:18.627Z,87.05
2022-12-18T23:02:26.486Z,86.95
2022-12-18T23:05:34.108Z,86.85
2022-12-18T23:08:42.008Z,87.05
2022-12-18T23:11:49.268Z,87.05
2022-12-18T23:14:57.178Z,86.95
2022-12-18T23:18:05.452Z,87.02
2022-12-18T23:21:12.569Z,86.91
2022-12-18T23:24:20.901Z,86.91
2022-12-18T23:27:29.128Z,87.12
2022-12-18T23:30:36.287Z,87.12
2022-12-18T23:33:44.277Z,87.12
2022-12-18T23:36:55.974Z,87.23
2022-12-18T23:39:52.789Z,87.23
2022-12-18T23:43:00.945Z,87.02
2022-12-18T23:46:08.636Z,86.80
2022-12-18T23:49:16.324Z,86.49
2022-12-18T23:52:24.041Z,86.38
2022-12-18T23:55:31.904Z,86.35
2022-12-18T23:58:39.661Z,86.45
